Terminal Aerodrome Forecast
Issued by NWS

Home | Current Version | Previous Version | Text Only | Print | Product List | Glossary Off
Versions: 1 2 3 4 5 6 7 8 9 10 11 12 13 14

000
FTUS43 KIWX 251100
TAFSBN
TAF
KSBN 251132Z 2512/2612 05003KT 5SM BR SCT008 OVC015
      TEMPO 2513/2515 BKN008
     FM251500 07014G20KT 3SM -SN BR OVC006
     FM260000 04012G18KT P6SM -SN OVC015
     FM260300 03006KT P6SM SCT015 BKN035=

USA.gov is the U.S. government's official web portal to all federal, state and local government web resources and services.